Time;durP1;ratioP1;P1;durP2;ratioP2;P2;SDS_P1;SDS_P2;PMS_P1;PMS_P2;Temp;Humidity;BMP_temperature;BMP_pressure;BME280_temperature;BME280_humidity;BME280_pressure;Samples;Min_cycle;Max_cycle;Signal;HPM_P1;HPM_P2
2021/12/02 00:00:06;;;;;;;1.60;1.50;;;;;;;3.84;100.00;96192.97;5053587;28;20222;-74
2021/12/02 00:02:36;;;;;;;1.57;1.47;;;;;;;3.89;100.00;96195.09;5044375;28;20198;-73
2021/12/02 00:05:07;;;;;;;1.40;1.40;;;;;;;3.88;100.00;96196.06;5043301;28;20199;-75
2021/12/02 00:07:35;;;;;;;1.23;1.23;;;;;;;3.91;100.00;96199.19;5020605;28;20246;-73
2021/12/02 00:10:05;;;;;;;1.70;1.70;;;;;;;3.84;100.00;96190.38;5038614;28;20563;-74
2021/12/02 00:12:33;;;;;;;1.60;1.60;;;;;;;3.86;100.00;96203.28;5044782;28;20214;-73
2021/12/02 00:15:06;;;;;;;2.00;1.90;;;;;;;3.93;100.00;96200.81;5034673;28;20241;-75
2021/12/02 00:17:38;;;;;;;1.80;1.70;;;;;;;3.81;100.00;96195.94;5053144;28;20214;-72
2021/12/02 00:23:22;;;;;;;1.90;1.80;;;;;;;3.77;100.00;96202.47;5011098;28;20725;-75
2021/12/02 00:25:52;;;;;;;1.50;1.50;;;;;;;3.73;100.00;96202.00;5049153;28;20429;-76
2021/12/02 00:28:20;;;;;;;1.80;1.70;;;;;;;3.74;100.00;96208.03;5039463;28;20239;-74
2021/12/02 00:30:48;;;;;;;2.00;1.90;;;;;;;3.67;100.00;96213.13;5038684;28;20599;-74
2021/12/02 00:33:16;;;;;;;1.67;1.67;;;;;;;3.72;100.00;96208.22;5040248;28;20217;-73
2021/12/02 00:35:46;;;;;;;1.97;1.77;;;;;;;3.64;100.00;96208.22;5040458;28;20679;-74
2021/12/02 00:38:15;;;;;;;1.97;1.87;;;;;;;3.60;100.00;96205.09;5022473;28;20234;-73
2021/12/02 00:40:43;;;;;;;1.50;1.50;;;;;;;3.58;100.00;96207.06;5033692;28;20603;-74
2021/12/02 00:43:11;;;;;;;2.23;2.07;;;;;;;3.62;100.00;96213.63;5053639;28;20311;-74
2021/12/02 00:45:41;;;;;;;1.93;1.83;;;;;;;3.56;100.00;96211.66;5036424;28;20223;-73
2021/12/02 00:48:09;;;;;;;1.90;1.80;;;;;;;3.50;100.00;96214.09;5050730;28;20226;-73
2021/12/02 00:50:38;;;;;;;1.23;1.23;;;;;;;3.48;100.00;96211.66;5040415;28;20679;-73
2021/12/02 00:53:08;;;;;;;2.00;1.90;;;;;;;3.40;100.00;96219.50;5052149;28;20679;-75
2021/12/02 00:55:38;;;;;;;1.50;1.50;;;;;;;3.40;100.00;96222.94;5017132;28;20696;-72
2021/12/02 00:58:06;;;;;;;2.03;1.80;;;;;;;3.48;100.00;96214.28;5038719;28;20215;-75
2021/12/02 01:00:34;;;;;;;1.70;1.63;;;;;;;3.55;100.00;96207.41;5037078;28;20549;-73
2021/12/02 01:03:03;;;;;;;1.90;1.80;;;;;;;3.53;100.00;96213.78;5039335;28;20210;-75
2021/12/02 01:05:31;;;;;;;1.93;1.83;;;;;;;3.56;100.00;96209.03;5053214;28;20686;-73
2021/12/02 01:08:00;;;;;;;2.20;2.00;;;;;;;3.50;100.00;96211.47;5040028;28;21069;-75
2021/12/02 01:10:30;;;;;;;5.17;2.00;;;;;;;3.42;100.00;96223.59;5008003;28;20219;-73
2021/12/02 01:12:58;;;;;;;1.63;1.53;;;;;;;3.37;100.00;96222.44;5051899;28;20211;-76
2021/12/02 01:15:26;;;;;;;2.27;1.70;;;;;;;3.42;100.00;96215.75;5035971;28;20206;-73
2021/12/02 01:17:54;;;;;;;1.90;1.80;;;;;;;3.27;100.00;96227.84;5043259;28;20222;-76
2021/12/02 01:20:23;;;;;;;1.57;1.47;;;;;;;3.22;100.00;96227.47;5053723;28;20213;-74
2021/12/02 01:22:51;;;;;;;1.83;1.73;;;;;;;3.26;100.00;96221.78;5032110;28;20533;-75
2021/12/02 01:25:19;;;;;;;1.87;1.77;;;;;;;3.33;100.00;96230.63;5022787;28;20215;-75
2021/12/02 01:27:51;;;;;;;2.23;1.90;;;;;;;3.34;100.00;96231.44;5034147;28;20339;-74
2021/12/02 01:30:19;;;;;;;2.30;2.03;;;;;;;3.29;100.00;96231.94;5052048;28;20206;-74
2021/12/02 01:32:49;;;;;;;2.03;1.77;;;;;;;3.29;100.00;96233.75;5022127;28;23472;-75
2021/12/02 01:35:18;;;;;;;2.53;2.37;;;;;;;3.23;100.00;96226.53;5052441;28;20211;-74
2021/12/02 01:37:46;;;;;;;2.10;2.00;;;;;;;3.18;100.00;96227.00;5049662;28;21105;-75
2021/12/02 01:40:14;;;;;;;1.93;1.87;;;;;;;3.23;100.00;96229.97;5039279;28;20217;-73
2021/12/02 01:42:44;;;;;;;1.83;1.73;;;;;;;3.28;100.00;96230.28;5016356;28;20424;-73
2021/12/02 01:45:15;;;;;;;2.07;1.97;;;;;;;3.23;100.00;96229.97;5039420;28;20211;-75
2021/12/02 01:47:49;;;;;;;2.13;2.03;;;;;;;3.24;100.00;96236.84;5036512;28;20777;-74
2021/12/02 01:50:20;;;;;;;1.73;1.73;;;;;;;3.33;100.00;96229.81;5052921;28;20349;-73
2021/12/02 01:52:50;;;;;;;1.80;1.70;;;;;;;3.33;100.00;96230.63;5026157;28;20515;-73
2021/12/02 01:55:18;;;;;;;1.50;1.50;;;;;;;3.36;100.00;96242.59;5042554;28;20703;-75
2021/12/02 01:57:54;;;;;;;2.00;1.83;;;;;;;3.31;100.00;96237.00;5006835;28;20623;-74
2021/12/02 02:00:23;;;;;;;2.73;2.27;;;;;;;3.40;100.00;96238.66;5052849;28;20675;-74
2021/12/02 02:02:51;;;;;;;1.97;1.87;;;;;;;3.41;100.00;96240.28;5020930;28;20233;-75
2021/12/02 02:05:20;;;;;;;2.10;2.00;;;;;;;3.46;100.00;96230.16;5050934;28;20213;-75
2021/12/02 02:07:56;;;;;;;1.83;1.70;;;;;;;3.42;100.00;96234.06;5051945;28;20230;-74
2021/12/02 02:10:25;;;;;;;2.40;2.23;;;;;;;3.42;100.00;96236.69;5042312;28;20230;-74
2021/12/02 02:12:54;;;;;;;1.90;1.80;;;;;;;3.43;100.00;96240.94;5022910;28;20761;-75
2021/12/02 02:15:24;;;;;;;1.70;1.60;;;;;;;3.42;100.00;96247.16;5037877;28;20210;-75
2021/12/02 02:17:56;;;;;;;2.30;2.20;;;;;;;3.42;100.00;96244.53;5042120;28;20299;-76
2021/12/02 02:20:26;;;;;;;1.80;1.80;;;;;;;3.36;100.00;96245.19;5055753;28;20207;-74
2021/12/02 02:22:54;;;;;;;2.97;2.30;;;;;;;3.38;100.00;96247.63;5049537;28;20416;-74
2021/12/02 02:25:22;;;;;;;2.23;2.03;;;;;;;3.32;100.00;96249.13;5047711;28;20626;-75
2021/12/02 02:27:50;;;;;;;1.93;1.80;;;;;;;3.36;100.00;96250.44;5009479;28;20639;-75
2021/12/02 02:30:18;;;;;;;2.73;2.20;;;;;;;3.36;100.00;96247.81;5049839;28;20223;-74
2021/12/02 02:32:46;;;;;;;1.63;1.60;;;;;;;3.42;100.00;96243.75;5039103;28;20233;-75
2021/12/02 02:35:14;;;;;;;2.10;2.00;;;;;;;3.40;100.00;96243.91;5054979;28;20238;-77
2021/12/02 02:37:43;;;;;;;1.90;1.80;;;;;;;3.41;100.00;96244.69;5051928;28;20231;-74
2021/12/02 02:40:14;;;;;;;2.13;2.03;;;;;;;3.36;100.00;96241.75;5041202;28;20203;-75
2021/12/02 02:42:44;;;;;;;2.10;2.00;;;;;;;3.32;100.00;96242.06;5039914;28;20211;-74
2021/12/02 02:45:12;;;;;;;2.00;1.80;;;;;;;3.26;100.00;96241.91;5007364;28;20552;-75
2021/12/02 02:47:40;;;;;;;2.10;2.00;;;;;;;3.24;100.00;96244.69;5052391;28;20230;-73
2021/12/02 02:50:12;;;;;;;1.67;1.57;;;;;;;3.19;100.00;96241.72;5041580;28;20219;-72
2021/12/02 02:52:40;;;;;;;1.80;1.70;;;;;;;3.16;100.00;96237.63;5037773;28;20666;-73
2021/12/02 02:55:12;;;;;;;3.13;2.10;;;;;;;3.05;100.00;96240.56;5055729;28;20210;-72
2021/12/02 02:57:44;;;;;;;2.00;1.90;;;;;;;2.92;100.00;96237.59;5025403;28;20661;-76
2021/12/02 03:00:16;;;;;;;1.57;1.50;;;;;;;2.88;100.00;96237.91;5023568;28;20218;-73
2021/12/02 03:02:55;;;;;;;1.60;1.60;;;;;;;2.82;100.00;96237.72;5043673;28;20215;-74
2021/12/02 03:05:27;;;;;;;2.50;1.73;;;;;;;2.77;100.00;96247.81;5025036;28;20222;-75
2021/12/02 03:07:57;;;;;;;1.97;1.73;;;;;;;2.68;100.00;96242.56;5055004;28;20227;-74
2021/12/02 03:10:40;;;;;;;1.90;1.80;;;;;;;2.64;100.00;96243.03;5052833;28;20447;-75
2021/12/02 03:13:15;;;;;;;2.17;2.00;;;;;;;2.64;100.00;96248.25;5041078;28;20237;-74
2021/12/02 03:18:30;;;;;;;1.83;1.73;;;;;;;2.32;100.00;96242.72;5051297;28;20300;-74
2021/12/02 03:20:59;;;;;;;2.40;1.97;;;;;;;2.25;100.00;96249.53;5024221;28;20602;-74
2021/12/02 03:23:27;;;;;;;2.53;2.33;;;;;;;2.16;100.00;96246.88;5050594;28;20489;-75
2021/12/02 03:25:56;;;;;;;2.07;1.97;;;;;;;2.07;100.00;96253.03;5040938;28;20211;-75
2021/12/02 03:28:24;;;;;;;1.90;1.80;;;;;;;2.05;100.00;96251.53;5026875;28;20807;-75
2021/12/02 03:30:52;;;;;;;2.27;2.17;;;;;;;1.99;100.00;96251.16;5024053;28;20245;-75
2021/12/02 03:33:20;;;;;;;2.00;1.90;;;;;;;2.02;100.00;96248.25;5032791;28;20218;-74
2021/12/02 03:35:48;;;;;;;2.50;2.40;;;;;;;2.02;100.00;96257.91;5040983;28;20207;-76
2021/12/02 03:38:29;;;;;;;2.60;2.13;;;;;;;2.48;100.00;96249.84;5036160;28;20304;-72
2021/12/02 03:40:58;;;;;;;2.07;1.97;;;;;;;2.54;100.00;96246.59;5048298;28;20642;-72
2021/12/02 03:43:27;;;;;;;2.40;2.20;;;;;;;2.55;100.00;96248.25;5033521;28;21756;-72
2021/12/02 03:45:56;;;;;;;2.43;2.33;;;;;;;2.69;100.00;96243.38;5050876;28;20237;-73
2021/12/02 03:48:24;;;;;;;2.60;2.40;;;;;;;2.74;100.00;96241.09;5013874;28;20678;-72
2021/12/02 03:50:52;;;;;;;2.07;1.97;;;;;;;2.73;100.00;96242.09;5037629;28;20226;-70
2021/12/02 03:53:20;;;;;;;2.67;2.47;;;;;;;2.79;100.00;96233.59;5035732;28;20222;-70
2021/12/02 03:55:49;;;;;;;3.20;3.00;;;;;;;2.94;100.00;96240.84;5031660;28;20912;-72
2021/12/02 03:58:18;;;;;;;3.23;2.10;;;;;;;2.97;100.00;96246.56;5034977;28;20226;-72
2021/12/02 04:00:46;;;;;;;2.83;2.40;;;;;;;2.98;100.00;96242.19;5052396;28;20639;-74
2021/12/02 04:03:15;;;;;;;2.40;2.30;;;;;;;3.04;100.00;96241.53;5004821;28;20611;-72
2021/12/02 04:05:44;;;;;;;2.63;2.33;;;;;;;3.09;100.00;96238.44;5055103;28;20211;-72
2021/12/02 04:08:12;;;;;;;4.10;2.43;;;;;;;3.14;100.00;96241.41;5036199;28;20241;-71
2021/12/02 04:10:41;;;;;;;2.20;2.03;;;;;;;3.25;100.00;96237.66;5042818;28;20230;-70
2021/12/02 04:13:14;;;;;;;2.47;1.93;;;;;;;3.20;100.00;96235.50;5046474;28;20222;-71
2021/12/02 04:15:50;;;;;;;2.83;1.90;;;;;;;3.17;100.00;96241.88;5051810;28;20276;-70
2021/12/02 04:18:18;;;;;;;2.10;2.00;;;;;;;3.28;100.00;96234.72;5016639;28;20229;-71
2021/12/02 04:20:46;;;;;;;1.73;1.63;;;;;;;3.23;100.00;96223.91;5039626;28;20221;-73
2021/12/02 04:23:14;;;;;;;2.00;1.77;;;;;;;3.23;100.00;96231.78;5037883;28;20211;-72
2021/12/02 04:25:43;;;;;;;2.67;1.70;;;;;;;3.24;100.00;96238.66;5054375;28;20210;-72
2021/12/02 04:28:11;;;;;;;2.20;2.10;;;;;;;3.26;100.00;96239.31;5052077;28;20226;-71
2021/12/02 04:30:39;;;;;;;2.30;2.20;;;;;;;3.29;100.00;96241.59;5040777;28;20610;-74
2021/12/02 04:33:08;;;;;;;1.87;1.83;;;;;;;3.30;100.00;96235.38;5014135;28;20586;-73
2021/12/02 04:35:36;;;;;;;2.20;1.90;;;;;;;3.41;100.00;96242.91;5044954;28;20440;-71
2021/12/02 04:38:04;;;;;;;2.53;2.43;;;;;;;3.42;100.00;96241.94;5053066;28;20219;-70
2021/12/02 04:40:35;;;;;;;3.43;2.20;;;;;;;3.45;100.00;96238.19;5027244;28;20233;-74
2021/12/02 04:43:03;;;;;;;4.57;2.30;;;;;;;3.42;100.00;96233.28;5054155;28;20690;-72
2021/12/02 04:45:31;;;;;;;4.93;2.20;;;;;;;3.39;100.00;96239.63;5020559;28;20207;-72
2021/12/02 04:48:00;;;;;;;2.87;2.37;;;;;;;3.37;100.00;96249.47;5051397;28;20258;-72
2021/12/02 04:50:29;;;;;;;4.20;2.40;;;;;;;3.39;100.00;96246.66;5026832;28;20317;-73
2021/12/02 04:52:57;;;;;;;2.83;2.10;;;;;;;3.40;100.00;96241.28;5037227;28;20207;-70
2021/12/02 04:55:25;;;;;;;2.23;2.10;;;;;;;3.48;100.00;96237.84;5021555;28;20245;-70
2021/12/02 04:57:53;;;;;;;3.30;2.70;;;;;;;3.46;100.00;96242.44;5037343;28;20598;-69
2021/12/02 05:00:22;;;;;;;2.33;2.10;;;;;;;3.46;100.00;96238.00;5050095;28;20207;-69
2021/12/02 05:02:50;;;;;;;1.97;1.87;;;;;;;3.49;100.00;96236.88;5042913;28;20325;-70
2021/12/02 05:05:18;;;;;;;2.30;2.10;;;;;;;3.47;100.00;96230.97;5016254;28;20207;-68
2021/12/02 05:07:49;;;;;;;3.17;2.40;;;;;;;3.49;100.00;96234.25;5053455;28;20227;-69
2021/12/02 05:10:17;;;;;;;2.47;2.03;;;;;;;3.46;100.00;96242.44;5009341;28;20223;-73
2021/12/02 05:12:45;;;;;;;2.20;2.10;;;;;;;3.46;100.00;96234.59;5044301;28;20224;-74
2021/12/02 05:15:13;;;;;;;2.30;2.20;;;;;;;3.52;100.00;96236.53;5037772;28;20804;-73
2021/12/02 05:17:41;;;;;;;1.70;1.60;;;;;;;3.46;100.00;96245.06;5034545;28;20234;-74
2021/12/02 05:20:10;;;;;;;2.67;2.23;;;;;;;3.46;100.00;96240.63;5021399;28;20215;-73
2021/12/02 05:22:38;;;;;;;2.07;1.90;;;;;;;3.47;100.00;96242.25;5039563;28;20682;-75
2021/12/02 05:25:09;;;;;;;2.83;2.17;;;;;;;3.45;100.00;96254.69;5051826;28;20203;-73
2021/12/02 05:27:37;;;;;;;2.37;2.10;;;;;;;3.48;100.00;96245.72;5023699;28;20368;-75
2021/12/02 05:30:07;;;;;;;3.67;2.60;;;;;;;3.45;100.00;96241.59;5035452;28;20203;-74
2021/12/02 05:32:35;;;;;;;2.30;2.20;;;;;;;3.46;100.00;96238.00;5034578;28;20659;-73
2021/12/02 05:35:04;;;;;;;6.97;2.73;;;;;;;3.50;100.00;96235.06;5005140;28;20467;-75
2021/12/02 05:37:32;;;;;;;2.47;2.20;;;;;;;3.47;100.00;96234.41;5052691;28;20237;-73
2021/12/02 05:40:01;;;;;;;2.47;2.30;;;;;;;3.51;100.00;96236.69;5052370;28;20199;-73
2021/12/02 05:42:30;;;;;;;2.57;2.37;;;;;;;3.54;100.00;96223.28;5040896;28;20221;-74
2021/12/02 05:44:58;;;;;;;5.33;2.57;;;;;;;3.54;100.00;96231.97;5048833;28;20203;-74
2021/12/02 05:47:26;;;;;;;2.40;2.30;;;;;;;3.51;100.00;96236.69;5053019;28;20253;-74
2021/12/02 05:49:54;;;;;;;2.40;2.10;;;;;;;3.56;100.00;96237.03;5008348;28;20652;-75
2021/12/02 05:52:22;;;;;;;2.60;2.40;;;;;;;3.59;100.00;96229.66;5052951;28;20222;-75
2021/12/02 05:54:50;;;;;;;2.17;1.97;;;;;;;3.55;100.00;96227.53;5050254;28;20252;-76
2021/12/02 05:57:18;;;;;;;2.00;1.90;;;;;;;3.53;100.00;96234.72;5036713;28;20613;-75
2021/12/02 05:59:47;;;;;;;4.50;1.90;;;;;;;3.58;100.00;96235.88;5018587;28;20226;-76
2021/12/02 06:02:15;;;;;;;3.20;3.00;;;;;;;3.50;100.00;96233.28;5034080;28;20211;-74
2021/12/02 06:04:45;;;;;;;4.23;3.37;;;;;;;3.55;100.00;96230.97;5043132;28;20663;-75
2021/12/02 06:07:13;;;;;;;3.33;2.33;;;;;;;3.50;100.00;96229.81;5021503;28;20237;-75
2021/12/02 06:09:41;;;;;;;2.40;2.30;;;;;;;3.59;100.00;96231.44;5052487;28;20206;-75
2021/12/02 06:12:09;;;;;;;2.03;2.00;;;;;;;3.55;100.00;96243.25;5051295;28;20223;-74
2021/12/02 06:14:37;;;;;;;2.23;2.13;;;;;;;3.61;100.00;96245.22;5038765;28;20206;-75
2021/12/02 06:17:10;;;;;;;2.47;2.17;;;;;;;3.55;100.00;96248.47;5050842;28;20203;-74
2021/12/02 06:19:38;;;;;;;2.50;2.30;;;;;;;3.49;100.00;96242.09;5025405;28;20215;-75
2021/12/02 06:22:08;;;;;;;2.40;2.20;;;;;;;3.51;100.00;96239.31;5021719;28;20728;-75
2021/12/02 06:24:43;;;;;;;3.87;1.77;;;;;;;3.54;100.00;96242.44;5034105;28;21339;-75
2021/12/02 06:27:11;;;;;;;2.60;2.40;;;;;;;3.47;100.00;96244.06;5045782;28;20238;-74
2021/12/02 06:29:42;;;;;;;2.77;2.40;;;;;;;3.42;100.00;96241.13;5037682;28;20275;-75
2021/12/02 06:32:11;;;;;;;2.70;2.50;;;;;;;3.42;100.00;96247.16;5033654;28;20231;-74
2021/12/02 06:34:39;;;;;;;3.23;2.47;;;;;;;3.53;100.00;96245.22;5051387;28;20295;-74
2021/12/02 06:37:07;;;;;;;3.20;2.60;;;;;;;3.45;100.00;96241.59;5021198;28;20222;-74
2021/12/02 06:39:35;;;;;;;3.13;2.57;;;;;;;3.54;100.00;96238.97;5049114;28;20415;-74
2021/12/02 06:42:03;;;;;;;2.87;2.53;;;;;;;3.56;100.00;96237.03;5019268;28;20379;-74
2021/12/02 06:44:32;;;;;;;2.70;2.50;;;;;;;3.51;100.00;96240.16;5053904;28;20211;-74
2021/12/02 06:47:00;;;;;;;2.90;2.60;;;;;;;3.56;100.00;96242.25;5020314;28;20216;-74
2021/12/02 06:49:32;;;;;;;2.47;2.30;;;;;;;3.57;100.00;96243.91;5034546;28;20211;-75
2021/12/02 06:52:00;;;;;;;2.30;2.20;;;;;;;3.50;100.00;96246.38;5021450;28;20324;-75
2021/12/02 06:54:28;;;;;;;2.37;2.13;;;;;;;3.51;100.00;96248.00;5043903;28;20526;-75
2021/12/02 06:56:56;;;;;;;2.10;1.87;;;;;;;3.51;100.00;96247.16;5057055;28;20210;-74
2021/12/02 06:59:24;;;;;;;3.00;2.80;;;;;;;3.47;100.00;96244.88;5034712;28;20210;-74
2021/12/02 07:01:52;;;;;;;2.53;2.33;;;;;;;3.52;100.00;96254.03;5032999;28;20214;-74
2021/12/02 07:04:20;;;;;;;2.40;2.20;;;;;;;3.53;100.00;96245.22;5032397;28;20216;-73
2021/12/02 07:06:50;;;;;;;2.60;2.30;;;;;;;3.50;100.00;96254.22;5017156;28;20210;-76
2021/12/02 07:09:18;;;;;;;3.07;2.20;;;;;;;3.55;100.00;96249.31;5044109;28;20226;-73
2021/12/02 07:11:46;;;;;;;2.47;2.17;;;;;;;3.55;100.00;96251.09;5052375;28;20599;-74
2021/12/02 07:14:16;;;;;;;2.50;2.30;;;;;;;3.47;100.00;96257.16;5055342;28;20218;-73
2021/12/02 07:16:44;;;;;;;4.53;2.57;;;;;;;3.44;100.00;96263.53;5036270;28;20349;-74
2021/12/02 07:19:14;;;;;;;3.40;2.43;;;;;;;3.43;100.00;96261.91;5052884;28;20690;-73
2021/12/02 07:21:44;;;;;;;2.50;2.40;;;;;;;3.56;100.00;96260.59;5039967;28;20606;-74
2021/12/02 07:24:15;;;;;;;2.73;2.20;;;;;;;3.36;100.00;96263.53;5022691;28;20218;-73
2021/12/02 07:27:05;;;;;;;2.30;2.20;;;;;;;3.39;100.00;96265.00;5047576;28;20439;-74
2021/12/02 07:29:33;;;;;;;4.60;2.50;;;;;;;3.42;100.00;96268.13;5041082;28;20309;-73
2021/12/02 07:32:03;;;;;;;2.53;2.33;;;;;;;3.37;100.00;96267.78;5041828;28;20222;-75
2021/12/02 07:34:34;;;;;;;2.93;2.73;;;;;;;3.36;100.00;96281.03;5036584;28;20199;-75
2021/12/02 07:37:03;;;;;;;2.57;2.17;;;;;;;3.48;100.00;96277.13;5057482;28;20203;-74
2021/12/02 07:39:32;;;;;;;2.10;1.97;;;;;;;3.42;100.00;96281.22;5004442;28;20677;-74
2021/12/02 07:42:18;;;;;;;3.07;2.60;;;;;;;3.40;100.00;96277.09;5050917;28;21043;-74
2021/12/02 07:44:47;;;;;;;2.30;2.20;;;;;;;3.39;100.00;96278.91;5054148;28;20226;-74
2021/12/02 07:47:15;;;;;;;1.90;1.80;;;;;;;3.54;100.00;96275.66;5037230;28;20226;-73
2021/12/02 07:49:44;;;;;;;4.70;3.50;;;;;;;3.42;100.00;96283.03;5055099;28;20211;-75
2021/12/02 07:52:13;;;;;;;2.27;2.07;;;;;;;3.50;100.00;96284.81;5040190;28;20234;-73
2021/12/02 07:54:43;;;;;;;2.50;2.40;;;;;;;3.47;100.00;96278.94;5023522;28;20339;-74
2021/12/02 07:57:13;;;;;;;2.70;2.50;;;;;;;3.62;100.00;96286.16;5046770;28;20237;-73
2021/12/02 07:59:42;;;;;;;1.90;1.80;;;;;;;3.65;100.00;96288.47;5045140;28;20383;-74
2021/12/02 08:02:13;;;;;;;6.37;2.70;;;;;;;3.65;100.00;96282.38;5040138;28;20210;-73
2021/12/02 08:04:42;;;;;;;2.50;2.30;;;;;;;3.61;100.00;96285.34;5027860;28;20722;-73
2021/12/02 08:07:10;;;;;;;2.17;2.00;;;;;;;3.54;100.00;96288.75;5054040;28;20229;-71
2021/12/02 08:09:38;;;;;;;2.43;2.23;;;;;;;3.53;100.00;96289.72;5004337;28;20962;-76
2021/12/02 08:12:08;;;;;;;3.37;2.53;;;;;;;3.43;100.00;96290.72;5048656;28;20239;-77
2021/12/02 08:14:36;;;;;;;2.60;2.40;;;;;;;3.62;100.00;96283.53;5050551;28;20439;-77
2021/12/02 08:17:05;;;;;;;2.47;2.30;;;;;;;3.58;100.00;96292.69;5018531;28;20210;-77
2021/12/02 08:19:33;;;;;;;2.57;2.27;;;;;;;3.51;100.00;96289.91;5051727;28;20351;-75
2021/12/02 08:22:01;;;;;;;3.60;2.40;;;;;;;3.47;100.00;96284.16;5026315;28;20203;-75
2021/12/02 08:24:29;;;;;;;3.40;2.37;;;;;;;3.49;100.00;96289.25;5021020;28;20240;-75
2021/12/02 08:26:57;;;;;;;4.13;2.87;;;;;;;3.46;100.00;96285.16;5050264;28;20226;-76
2021/12/02 08:29:26;;;;;;;3.47;2.33;;;;;;;3.59;100.00;96289.91;5035549;28;20207;-75
2021/12/02 08:31:56;;;;;;;2.53;2.33;;;;;;;3.47;100.00;96292.03;5054571;28;20199;-77
2021/12/02 08:34:24;;;;;;;2.33;2.23;;;;;;;3.46;100.00;96287.75;5022841;28;20666;-75
2021/12/02 08:36:54;;;;;;;2.37;2.27;;;;;;;3.42;100.00;96291.69;5052857;28;20529;-76
2021/12/02 08:39:25;;;;;;;2.13;1.97;;;;;;;3.53;100.00;96282.72;5035348;28;20682;-75
2021/12/02 08:41:54;;;;;;;2.30;2.17;;;;;;;3.50;100.00;96287.44;5025921;28;20269;-76
2021/12/02 08:44:24;;;;;;;2.20;2.10;;;;;;;3.51;100.00;96287.28;5050177;28;20266;-76
2021/12/02 08:46:54;;;;;;;2.27;2.17;;;;;;;3.62;100.00;96289.59;5040712;28;20211;-77
2021/12/02 08:49:23;;;;;;;2.53;2.23;;;;;;;3.60;100.00;96288.13;5032851;28;20221;-74
2021/12/02 08:51:52;;;;;;;4.63;2.37;;;;;;;3.69;100.00;96283.69;5037277;28;20213;-75
2021/12/02 08:54:20;;;;;;;4.70;2.37;;;;;;;3.68;100.00;96293.38;5051320;28;20671;-74
2021/12/02 08:56:48;;;;;;;2.40;2.27;;;;;;;3.77;100.00;96288.94;5025547;28;20230;-76
2021/12/02 08:59:18;;;;;;;2.33;2.13;;;;;;;3.72;100.00;96291.22;5035001;28;20239;-75
2021/12/02 09:01:47;;;;;;;2.50;2.40;;;;;;;3.79;100.00;96284.38;5053005;28;20210;-75
2021/12/02 09:04:17;;;;;;;3.23;2.03;;;;;;;3.83;100.00;96290.09;5033372;28;20211;-75
2021/12/02 09:06:45;;;;;;;2.73;2.57;;;;;;;3.87;100.00;96286.16;5049644;28;20199;-76
2021/12/02 09:09:13;;;;;;;3.27;2.90;;;;;;;3.80;100.00;96291.25;5045938;28;20288;-75
2021/12/02 09:11:41;;;;;;;5.37;2.40;;;;;;;3.87;100.00;96294.03;5045837;28;20503;-76
2021/12/02 09:14:09;;;;;;;5.40;2.37;;;;;;;3.93;100.00;96287.31;5024815;28;20677;-76
2021/12/02 09:16:37;;;;;;;2.80;2.50;;;;;;;3.92;100.00;96286.47;5037917;28;20211;-76
2021/12/02 09:19:05;;;;;;;10.13;7.07;;;;;;;4.04;100.00;96279.13;5041394;28;20231;-76
2021/12/02 09:21:34;;;;;;;4.40;2.60;;;;;;;4.10;100.00;96286.31;5035504;28;20219;-77
2021/12/02 09:24:02;;;;;;;2.37;2.27;;;;;;;4.18;100.00;96288.13;5053160;28;20782;-76
2021/12/02 09:26:30;;;;;;;4.13;2.37;;;;;;;4.38;100.00;96285.94;5052146;28;20416;-73
2021/12/02 09:28:59;;;;;;;2.90;2.70;;;;;;;4.32;100.00;96290.06;5010878;28;20226;-77
2021/12/02 09:31:27;;;;;;;2.43;2.27;;;;;;;4.22;100.00;96284.19;5048134;28;20407;-76
2021/12/02 09:33:55;;;;;;;2.10;2.00;;;;;;;4.27;100.00;96283.69;5031925;28;20700;-77
2021/12/02 09:36:23;;;;;;;3.67;2.90;;;;;;;4.17;100.00;96279.44;5046756;28;20206;-76
2021/12/02 09:38:52;;;;;;;2.70;2.43;;;;;;;4.02;100.00;96289.78;5053627;28;20230;-77
2021/12/02 09:41:20;;;;;;;6.63;4.60;;;;;;;3.93;100.00;96282.88;5037532;28;20880;-75
2021/12/02 09:43:48;;;;;;;4.80;4.50;;;;;;;3.54;100.00;96301.84;5014715;28;20425;-77
2021/12/02 09:46:16;;;;;;;2.10;1.87;;;;;;;2.54;100.00;96308.53;5030405;28;20202;-75
2021/12/02 09:48:45;;;;;;;1.87;1.80;;;;;;;1.85;100.00;96317.03;5040414;28;20846;-77
2021/12/02 09:51:17;;;;;;;2.07;1.97;;;;;;;1.71;100.00;96327.06;5046859;28;20215;-76
2021/12/02 09:54:12;;;;;;;1.90;1.47;;;;;;;1.59;100.00;96323.00;5049166;28;20618;-76
2021/12/02 09:56:42;;;;;;;3.40;3.20;;;;;;;1.72;100.00;96339.16;5049784;28;20439;-76
2021/12/02 09:59:12;;;;;;;2.13;1.53;;;;;;;1.47;100.00;96337.25;5004480;28;20230;-76
2021/12/02 10:01:44;;;;;;;2.80;1.97;;;;;;;1.37;100.00;96326.88;5049790;28;20211;-75
2021/12/02 10:04:13;;;;;;;2.00;1.90;;;;;;;1.26;100.00;96331.34;5034747;28;20211;-74
2021/12/02 10:06:42;;;;;;;1.63;1.60;;;;;;;1.30;100.00;96326.63;5052076;28;20432;-75
2021/12/02 10:09:14;;;;;;;1.60;1.60;;;;;;;1.27;100.00;96329.53;5052642;28;20234;-75
2021/12/02 10:11:48;;;;;;;1.73;1.63;;;;;;;1.14;100.00;96345.56;5051690;28;20435;-74
2021/12/02 10:14:21;;;;;;;1.73;1.63;;;;;;;1.12;100.00;96340.47;5033502;28;20618;-73
2021/12/02 10:16:51;;;;;;;1.30;1.30;;;;;;;1.14;100.00;96346.38;5047523;28;20459;-75
2021/12/02 10:19:21;;;;;;;1.90;1.80;;;;;;;1.17;100.00;96341.81;5036614;28;20211;-74
2021/12/02 10:21:55;;;;;;;2.20;2.10;;;;;;;1.19;100.00;96350.31;5038153;28;20302;-76
2021/12/02 10:24:25;;;;;;;1.70;1.60;;;;;;;1.14;100.00;96342.94;5047485;28;20203;-73
2021/12/02 10:26:56;;;;;;;1.43;1.40;;;;;;;1.39;100.00;96340.59;5039419;28;20222;-76
2021/12/02 10:29:47;;;;;;;2.80;2.70;;;;;;;1.26;100.00;96343.53;5053499;28;20500;-75
2021/12/02 10:32:19;;;;;;;1.83;1.80;;;;;;;1.28;100.00;96349.44;5016445;28;20214;-75
2021/12/02 10:34:53;;;;;;;2.17;2.07;;;;;;;1.13;100.00;96349.94;5040938;28;20230;-76
2021/12/02 10:37:23;;;;;;;3.47;3.23;;;;;;;1.14;100.00;96350.78;5053276;28;20222;-74
2021/12/02 10:40:00;;;;;;;2.60;2.50;;;;;;;1.05;100.00;96349.84;5041587;28;20195;-77
2021/12/02 10:42:30;;;;;;;2.10;2.00;;;;;;;0.92;100.00;96355.38;5052400;28;20487;-76
2021/12/02 10:45:01;;;;;;;1.63;1.63;;;;;;;0.93;100.00;96354.44;5036121;28;20721;-75
2021/12/02 10:47:30;;;;;;;2.03;1.93;;;;;;;0.69;100.00;96360.94;5014345;28;20750;-74
2021/12/02 10:50:00;;;;;;;2.53;2.37;;;;;;;0.43;100.00;96363.34;5050457;28;20229;-75
2021/12/02 10:52:29;;;;;;;1.50;1.50;;;;;;;0.18;100.00;96351.75;5034355;28;20524;-76
2021/12/02 10:55:02;;;;;;;2.57;2.47;;;;;;;0.21;100.00;96359.28;5052626;28;20233;-76
2021/12/02 10:57:31;;;;;;;2.33;2.23;;;;;;;0.19;100.00;96348.19;5038107;28;20378;-76
2021/12/02 11:00:00;;;;;;;3.37;3.10;;;;;;;0.16;100.00;96351.06;5054820;28;20217;-74
2021/12/02 11:02:30;;;;;;;1.80;1.70;;;;;;;0.20;100.00;96348.06;5007541;28;20222;-77
2021/12/02 11:05:01;;;;;;;2.17;2.07;;;;;;;0.41;100.00;96349.66;5055044;28;20206;-76
2021/12/02 11:07:31;;;;;;;1.93;1.83;;;;;;;0.52;100.00;96348.66;5041624;28;20222;-77
2021/12/02 11:10:03;;;;;;;1.90;1.80;;;;;;;0.61;100.00;96352.22;5040851;28;20245;-77
2021/12/02 11:12:33;;;;;;;1.90;1.80;;;;;;;0.82;100.00;96344.19;5053401;28;20302;-74
2021/12/02 11:15:08;;;;;;;1.77;1.67;;;;;;;0.83;100.00;96351.84;5037233;28;20246;-77
2021/12/02 11:17:40;;;;;;;1.90;1.80;;;;;;;0.83;100.00;96351.84;5022480;28;20798;-76
2021/12/02 11:20:11;;;;;;;1.23;1.23;;;;;;;0.84;100.00;96350.88;5052116;28;20214;-76
2021/12/02 11:22:39;;;;;;;1.57;1.50;;;;;;;0.98;100.00;96348.78;5045648;28;20387;-76
2021/12/02 11:25:11;;;;;;;1.80;1.70;;;;;;;1.08;100.00;96349.56;5056032;28;20590;-75
2021/12/02 11:27:41;;;;;;;2.60;2.20;;;;;;;1.05;100.00;96347.25;5039579;28;20626;-75
2021/12/02 11:30:11;;;;;;;2.50;2.40;;;;;;;1.04;100.00;96343.00;5051601;28;20211;-76
2021/12/02 11:32:46;;;;;;;1.97;1.87;;;;;;;0.95;100.00;96349.09;5026109;28;26290;-74
2021/12/02 11:35:17;;;;;;;1.87;1.77;;;;;;;0.98;100.00;96346.97;5051124;28;20593;-73
2021/12/02 11:37:48;;;;;;;1.90;1.80;;;;;;;0.98;100.00;96352.19;5035937;28;20489;-76
2021/12/02 11:40:19;;;;;;;1.90;1.80;;;;;;;1.20;100.00;96354.56;5038292;28;20206;-75
2021/12/02 11:42:50;;;;;;;2.10;1.87;;;;;;;1.13;100.00;96341.28;5052908;28;20199;-77
2021/12/02 11:45:20;;;;;;;1.73;1.50;;;;;;;1.14;100.00;96343.75;5039895;28;20737;-74
2021/12/02 11:47:49;;;;;;;4.27;2.97;;;;;;;1.27;100.00;96350.41;5053056;28;20226;-75
2021/12/02 11:50:18;;;;;;;2.80;2.60;;;;;;;1.23;100.00;96346.44;5014990;28;20489;-75